createdAt,value
2022-09-18T00:01:38.566Z,76.50
2022-09-18T00:04:09.919Z,76.60
2022-09-18T00:06:42.945Z,76.60
2022-09-18T00:09:14.581Z,76.60
2022-09-18T00:11:47.952Z,76.50
2022-09-18T00:14:23.588Z,76.50
2022-09-18T00:16:51.371Z,76.40
2022-09-18T00:19:21.829Z,76.70
2022-09-18T00:21:54.244Z,76.50
2022-09-18T00:24:23.342Z,76.80
2022-09-18T00:26:55.665Z,77.20
2022-09-18T00:29:23.002Z,77.00
2022-09-18T00:31:50.346Z,76.80
2022-09-18T00:34:20.114Z,76.70
2022-09-18T00:36:47.425Z,76.60
2022-09-18T00:39:14.721Z,76.10
2022-09-18T00:41:44.114Z,76.50
2022-09-18T00:44:42.532Z,76.50
2022-09-18T00:47:09.763Z,76.30
2022-09-18T00:49:44.541Z,76.50
2022-09-18T00:52:14.203Z,76.60
2022-09-18T00:54:54.656Z,76.40
2022-09-18T00:57:31.064Z,75.90
2022-09-18T00:59:59.777Z,75.70
2022-09-18T01:02:29.651Z,75.60
2022-09-18T01:04:57.147Z,76.30
2022-09-18T01:07:36.014Z,75.50
2022-09-18T01:10:21.053Z,75.60
2022-09-18T01:12:56.043Z,75.10
2022-09-18T01:15:37.531Z,75.40
2022-09-18T01:18:33.886Z,75.00
2022-09-18T01:21:01.161Z,74.90
2022-09-18T01:23:59.349Z,74.90
2022-09-18T01:26:44.765Z,74.90
2022-09-18T01:29:18.030Z,74.10
2022-09-18T01:31:52.752Z,74.50
2022-09-18T01:34:30.271Z,74.50
2022-09-18T01:37:21.974Z,74.30
2022-09-18T01:39:58.387Z,74.00
2022-09-18T01:42:32.074Z,74.30
2022-09-18T01:45:07.227Z,73.50
2022-09-18T01:47:44.738Z,73.90
2022-09-18T01:50:15.002Z,73.90
2022-09-18T01:53:10.009Z,73.70
2022-09-18T01:55:41.860Z,73.10
2022-09-18T01:58:22.606Z,73.50
2022-09-18T02:00:58.344Z,73.50
2022-09-18T02:03:35.609Z,74.00
2022-09-18T02:06:18.019Z,74.30
2022-09-18T02:08:51.433Z,74.10
2022-09-18T02:11:21.993Z,74.10
2022-09-18T02:13:52.459Z,74.30
2022-09-18T02:16:33.331Z,74.30
2022-09-18T02:19:10.221Z,73.80
2022-09-18T02:21:39.901Z,73.40
2022-09-18T02:24:10.746Z,73.40
2022-09-18T02:26:40.439Z,74.10
2022-09-18T02:29:12.348Z,74.30
2022-09-18T02:31:42.370Z,74.40
2022-09-18T02:34:12.413Z,75.20
2022-09-18T02:37:01.074Z,76.70
2022-09-18T02:40:10.171Z,77.10
2022-09-18T02:43:04.550Z,77.40
2022-09-18T02:46:02.278Z,77.10
2022-09-18T02:49:08.084Z,77.30
2022-09-18T02:51:57.222Z,77.30
2022-09-18T02:54:47.300Z,76.90
2022-09-18T02:57:21.703Z,77.00
2022-09-18T02:59:56.119Z,76.50
2022-09-18T03:02:24.978Z,76.30
2022-09-18T03:04:54.863Z,76.20
2022-09-18T03:07:22.483Z,76.10
2022-09-18T03:09:49.797Z,76.20
2022-09-18T03:12:17.249Z,75.80
2022-09-18T03:14:44.652Z,76.10
2022-09-18T03:17:14.546Z,76.00
2022-09-18T03:19:44.617Z,76.10
2022-09-18T03:22:12.346Z,76.10
2022-09-18T03:24:47.362Z,76.20
2022-09-18T03:27:18.047Z,76.00
2022-09-18T03:29:45.344Z,76.30
2022-09-18T03:32:15.144Z,76.00
2022-09-18T03:34:42.417Z,75.90
2022-09-18T03:37:09.689Z,76.10
2022-09-18T03:39:37.005Z,76.70
2022-09-18T03:42:04.508Z,75.30
2022-09-18T03:44:31.820Z,75.40
2022-09-18T03:47:01.324Z,73.90
2022-09-18T03:49:28.592Z,74.60
2022-09-18T03:51:55.857Z,74.60
2022-09-18T03:54:23.172Z,74.40
2022-09-18T03:56:51.552Z,74.80
2022-09-18T03:59:21.724Z,74.70
2022-09-18T04:01:49.005Z,74.20
2022-09-18T04:04:16.362Z,74.80
2022-09-18T04:06:43.649Z,75.20
2022-09-18T04:09:10.915Z,76.90
2022-09-18T04:11:38.232Z,79.40
2022-09-18T04:14:05.544Z,80.60
2022-09-18T04:16:32.932Z,80.20
2022-09-18T04:19:02.840Z,80.60
2022-09-18T04:21:35.122Z,80.80
2022-09-18T04:24:04.738Z,80.80
2022-09-18T04:26:35.934Z,80.90
2022-09-18T04:29:03.849Z,81.00
2022-09-18T04:31:31.355Z,80.80
2022-09-18T04:33:58.785Z,80.90
2022-09-18T04:36:28.439Z,81.20
2022-09-18T04:38:55.649Z,81.20
2022-09-18T04:41:28.675Z,81.50
2022-09-18T04:43:58.328Z,81.70
2022-09-18T04:46:27.707Z,81.80
2022-09-18T04:48:55.026Z,82.10
2022-09-18T04:51:22.286Z,85.40
2022-09-18T04:53:49.605Z,85.90
2022-09-18T04:56:19.058Z,87.50
2022-09-18T04:58:46.471Z,87.70
2022-09-18T05:01:14.431Z,88.00
2022-09-18T05:03:43.984Z,88.20
2022-09-18T05:06:11.243Z,88.30
2022-09-18T05:08:40.966Z,88.30
2022-09-18T05:11:10.953Z,88.50
2022-09-18T05:13:40.801Z,89.30
2022-09-18T05:16:08.115Z,89.90
2022-09-18T05:18:38.536Z,90.10
2022-09-18T05:21:06.572Z,90.20
2022-09-18T05:23:36.127Z,90.40
2022-09-18T05:26:06.372Z,90.80
2022-09-18T05:28:34.178Z,91.40
2022-09-18T05:31:01.643Z,91.70
2022-09-18T05:33:31.471Z,91.90
2022-09-18T05:35:59.222Z,92.00
2022-09-18T05:38:26.876Z,92.10
2022-09-18T05:40:54.224Z,92.30
2022-09-18T05:43:23.847Z,92.20
2022-09-18T05:45:53.643Z,92.30
2022-09-18T05:48:21.027Z,92.00
2022-09-18T05:50:48.582Z,91.80
2022-09-18T05:53:18.403Z,91.70
2022-09-18T05:55:46.167Z,91.50
2022-09-18T05:58:18.356Z,91.40
2022-09-18T06:00:51.213Z,91.30
2022-09-18T06:03:18.682Z,91.40
2022-09-18T06:05:55.032Z,91.40
2022-09-18T06:08:25.034Z,91.40
2022-09-18T06:10:53.744Z,91.70
2022-09-18T06:13:21.093Z,91.30
2022-09-18T06:15:52.234Z,91.30
2022-09-18T06:18:22.316Z,91.20
2022-09-18T06:20:56.928Z,91.10
2022-09-18T06:23:26.097Z,91.50
2022-09-18T06:26:00.511Z,91.70
2022-09-18T06:28:30.832Z,91.30
2022-09-18T06:31:02.488Z,91.10
2022-09-18T06:33:33.209Z,90.80
2022-09-18T06:36:01.420Z,90.90
2022-09-18T06:38:28.735Z,91.20
2022-09-18T06:40:56.086Z,91.50
2022-09-18T06:43:23.334Z,91.50
2022-09-18T06:45:54.259Z,91.60
2022-09-18T06:48:22.269Z,91.70
2022-09-18T06:50:57.175Z,91.60
2022-09-18T06:53:24.731Z,91.60
2022-09-18T06:55:54.520Z,91.60
2022-09-18T06:58:21.819Z,91.70
2022-09-18T07:00:49.132Z,92.00
2022-09-18T07:03:21.149Z,91.60
2022-09-18T07:05:48.418Z,91.60
2022-09-18T07:08:15.772Z,91.50
2022-09-18T07:10:45.671Z,91.60
2022-09-18T07:13:12.910Z,91.70
2022-09-18T07:15:42.720Z,91.80
2022-09-18T07:18:10.219Z,92.00
2022-09-18T07:20:40.005Z,92.00
2022-09-18T07:23:10.164Z,92.10
2022-09-18T07:25:37.427Z,92.20
2022-09-18T07:28:08.055Z,92.30
2022-09-18T07:30:36.920Z,92.40
2022-09-18T07:33:08.803Z,92.60
2022-09-18T07:35:36.408Z,92.60
2022-09-18T07:38:06.312Z,92.80
2022-09-18T07:40:34.555Z,93.00
2022-09-18T07:43:04.871Z,92.90
2022-09-18T07:45:32.843Z,92.50
2022-09-18T07:48:05.663Z,92.60
2022-09-18T07:50:35.792Z,92.50
2022-09-18T07:53:05.448Z,92.60
2022-09-18T07:55:36.293Z,92.70
2022-09-18T07:58:06.530Z,92.60
2022-09-18T08:00:36.946Z,92.90
2022-09-18T08:03:09.901Z,92.70
2022-09-18T08:05:38.587Z,92.50
2022-09-18T08:08:07.552Z,92.70
2022-09-18T08:10:36.550Z,92.60
2022-09-18T08:13:04.346Z,92.20
2022-09-18T08:15:32.979Z,91.90
2022-09-18T08:18:01.227Z,91.80
2022-09-18T08:20:30.741Z,92.10
2022-09-18T08:22:58.643Z,91.60
2022-09-18T08:25:31.906Z,91.50
2022-09-18T08:28:03.703Z,91.60
2022-09-18T08:30:31.268Z,91.60
2022-09-18T08:33:00.109Z,91.90
2022-09-18T08:35:27.894Z,91.60
2022-09-18T08:37:55.633Z,92.00
2022-09-18T08:40:51.471Z,92.10
2022-09-18T08:43:51.169Z,91.80
2022-09-18T08:46:40.151Z,92.00
2022-09-18T08:49:39.553Z,92.00
2022-09-18T08:52:12.377Z,92.00
2022-09-18T08:55:17.509Z,92.30
2022-09-18T08:57:58.671Z,91.80
2022-09-18T09:00:39.030Z,91.90
2022-09-18T09:03:33.773Z,92.30
2022-09-18T09:06:31.360Z,92.20
2022-09-18T09:09:37.439Z,92.20
2022-09-18T09:12:43.303Z,92.50
2022-09-18T09:15:35.123Z,92.80
2022-09-18T09:18:11.227Z,92.10
2022-09-18T09:20:55.925Z,91.90
2022-09-18T09:23:41.744Z,91.30
2022-09-18T09:26:18.756Z,90.60
2022-09-18T09:28:49.182Z,90.50
2022-09-18T09:31:22.799Z,90.50
2022-09-18T09:33:59.028Z,90.40
2022-09-18T09:36:29.837Z,90.60
2022-09-18T09:39:28.029Z,90.50
2022-09-18T09:42:15.832Z,90.10
2022-09-18T09:44:59.894Z,90.00
2022-09-18T09:47:56.376Z,90.00
2022-09-18T09:50:53.167Z,88.80
2022-09-18T09:53:26.836Z,88.60
2022-09-18T09:56:06.467Z,88.90
2022-09-18T09:58:56.234Z,87.30
2022-09-18T10:01:29.372Z,87.20
2022-09-18T10:04:31.629Z,87.80
2022-09-18T10:07:11.161Z,87.40
2022-09-18T10:09:47.286Z,88.10
2022-09-18T10:12:32.532Z,88.30
2022-09-18T10:15:27.537Z,88.90
2022-09-18T10:17:59.088Z,87.80
2022-09-18T10:20:34.196Z,89.70
2022-09-18T10:23:17.081Z,88.90
2022-09-18T10:25:51.118Z,87.80
2022-09-18T10:28:18.549Z,89.00
2022-09-18T10:31:06.200Z,89.90
2022-09-18T10:33:33.480Z,89.10
2022-09-18T10:36:09.100Z,89.30
2022-09-18T10:38:39.973Z,89.10
2022-09-18T10:41:38.107Z,88.70
2022-09-18T10:44:14.480Z,87.50
2022-09-18T10:47:05.344Z,86.80
2022-09-18T10:49:40.940Z,83.70
2022-09-18T10:52:23.676Z,87.00
2022-09-18T10:55:12.535Z,86.90
2022-09-18T10:57:48.595Z,86.50
2022-09-18T11:00:21.840Z,86.90
2022-09-18T11:02:54.362Z,86.70
2022-09-18T11:05:26.069Z,88.10
2022-09-18T11:07:58.455Z,86.70
2022-09-18T11:10:27.750Z,86.00
2022-09-18T11:12:57.613Z,87.70
2022-09-18T11:15:31.697Z,88.40
2022-09-18T11:18:02.495Z,88.40
2022-09-18T11:20:40.328Z,88.40
2022-09-18T11:23:21.800Z,86.80
2022-09-18T11:25:49.292Z,85.30
2022-09-18T11:28:22.498Z,86.20
2022-09-18T11:31:15.381Z,85.10
2022-09-18T11:33:48.308Z,83.30
2022-09-18T11:36:24.531Z,84.20
2022-09-18T11:38:51.938Z,81.30
2022-09-18T11:41:33.186Z,79.70
2022-09-18T11:44:25.770Z,82.30
2022-09-18T11:47:02.749Z,80.90
2022-09-18T11:49:39.923Z,81.40
2022-09-18T11:52:16.448Z,81.40
2022-09-18T11:54:57.131Z,81.30
2022-09-18T11:57:35.315Z,81.60
2022-09-18T12:00:25.233Z,81.20
2022-09-18T12:03:04.669Z,80.40
2022-09-18T12:06:04.593Z,81.50
2022-09-18T12:08:45.366Z,82.30
2022-09-18T12:11:39.733Z,82.00
2022-09-18T12:14:41.783Z,80.70
2022-09-18T12:17:17.183Z,80.90
2022-09-18T12:19:58.565Z,81.10
2022-09-18T12:22:31.930Z,80.00
2022-09-18T12:24:59.336Z,80.70
2022-09-18T12:27:35.370Z,81.10
2022-09-18T12:30:13.449Z,79.80
2022-09-18T12:33:16.191Z,80.60
2022-09-18T12:36:25.360Z,79.10
2022-09-18T12:39:30.066Z,80.10
2022-09-18T12:42:11.899Z,80.10
2022-09-18T12:44:58.052Z,79.30
2022-09-18T12:47:57.105Z,80.10
2022-09-18T12:51:03.500Z,81.20
2022-09-18T12:53:49.646Z,81.70
2022-09-18T12:56:31.972Z,82.40
2022-09-18T12:59:25.321Z,81.40
2022-09-18T13:02:10.567Z,81.70
2022-09-18T13:04:44.780Z,81.90
2022-09-18T13:07:50.427Z,83.30
2022-09-18T13:10:20.809Z,82.80
2022-09-18T13:13:11.010Z,82.90
2022-09-18T13:15:52.321Z,83.30
2022-09-18T13:18:45.531Z,83.60
2022-09-18T13:21:22.863Z,84.70
2022-09-18T13:23:52.797Z,84.60
2022-09-18T13:26:23.124Z,84.60
2022-09-18T13:28:53.150Z,84.70
2022-09-18T13:31:23.893Z,85.00
2022-09-18T13:33:55.777Z,83.90
2022-09-18T13:36:28.423Z,83.30
2022-09-18T13:38:59.530Z,83.40
2022-09-18T13:41:28.462Z,83.90
2022-09-18T13:44:03.835Z,84.40
2022-09-18T13:46:39.619Z,85.10
2022-09-18T13:49:19.680Z,84.60
2022-09-18T13:51:47.388Z,84.10
2022-09-18T13:54:17.662Z,84.60
2022-09-18T13:57:10.406Z,83.00
2022-09-18T14:00:21.736Z,83.70
2022-09-18T14:03:08.986Z,83.30
2022-09-18T14:05:38.527Z,82.70
2022-09-18T14:08:24.227Z,82.20
2022-09-18T14:11:15.452Z,81.60
2022-09-18T14:13:54.488Z,82.00
2022-09-18T14:16:23.975Z,82.10
2022-09-18T14:19:06.069Z,81.20
2022-09-18T14:21:42.607Z,80.70
2022-09-18T14:24:38.852Z,81.10
2022-09-18T14:27:37.027Z,81.10
2022-09-18T14:30:26.799Z,80.80
2022-09-18T14:33:06.379Z,80.00
2022-09-18T14:35:58.921Z,80.40
2022-09-18T14:38:37.819Z,79.70
2022-09-18T14:41:26.457Z,80.10
2022-09-18T14:44:02.870Z,80.10
2022-09-18T14:46:32.213Z,79.50
2022-09-18T14:49:01.911Z,80.10
2022-09-18T14:51:44.894Z,80.30
2022-09-18T14:54:24.740Z,80.60
2022-09-18T14:56:59.893Z,80.10
2022-09-18T14:59:29.719Z,80.60
2022-09-18T15:02:35.377Z,80.30
2022-09-18T15:05:10.526Z,79.90
2022-09-18T15:07:41.715Z,79.80
2022-09-18T15:10:10.138Z,79.90
2022-09-18T15:12:39.803Z,79.60
2022-09-18T15:15:40.063Z,79.80
2022-09-18T15:18:27.507Z,79.30
2022-09-18T15:20:58.265Z,80.10
2022-09-18T15:23:38.241Z,79.90
2022-09-18T15:26:11.529Z,79.60
2022-09-18T15:28:42.141Z,78.90
2022-09-18T15:31:11.702Z,79.70
2022-09-18T15:33:59.256Z,79.50
2022-09-18T15:36:38.948Z,79.90
2022-09-18T15:39:07.545Z,78.80
2022-09-18T15:41:46.296Z,79.10
2022-09-18T15:44:32.041Z,79.40
2022-09-18T15:47:32.770Z,79.00
2022-09-18T15:50:20.716Z,79.10
2022-09-18T15:53:06.047Z,77.40
2022-09-18T15:55:46.149Z,78.00
2022-09-18T15:58:46.869Z,79.10
2022-09-18T16:01:22.964Z,78.70
2022-09-18T16:04:17.694Z,78.50
2022-09-18T16:07:21.656Z,78.40
2022-09-18T16:09:49.691Z,77.70
2022-09-18T16:12:32.646Z,77.60
2022-09-18T16:15:19.981Z,77.70
2022-09-18T16:18:13.731Z,77.20
2022-09-18T16:20:49.499Z,77.00
2022-09-18T16:23:30.919Z,76.80
2022-09-18T16:26:24.549Z,76.80
2022-09-18T16:28:56.109Z,76.00
2022-09-18T16:31:26.758Z,76.60
2022-09-18T16:34:02.640Z,77.20
2022-09-18T16:36:30.368Z,77.50
2022-09-18T16:39:00.606Z,78.00
2022-09-18T16:41:29.479Z,78.30
2022-09-18T16:44:00.991Z,78.90
2022-09-18T16:46:40.439Z,78.10
2022-09-18T16:49:09.476Z,78.40
2022-09-18T16:51:39.036Z,78.10
2022-09-18T16:54:06.441Z,78.50
2022-09-18T16:56:40.574Z,78.80
2022-09-18T16:59:08.611Z,78.70
2022-09-18T17:01:54.223Z,78.60
2022-09-18T17:04:26.354Z,78.70
2022-09-18T17:06:53.809Z,78.70
2022-09-18T17:09:24.018Z,78.20
2022-09-18T17:11:53.043Z,78.40
2022-09-18T17:14:20.928Z,78.60
2022-09-18T17:16:48.244Z,78.50
2022-09-18T17:19:15.687Z,78.10
2022-09-18T17:21:45.798Z,77.90
2022-09-18T17:24:17.442Z,78.10
2022-09-18T17:26:46.989Z,77.70
2022-09-18T17:29:14.152Z,77.90
2022-09-18T17:31:48.346Z,76.60
2022-09-18T17:34:16.625Z,76.90
2022-09-18T17:36:43.937Z,76.60
2022-09-18T17:39:13.930Z,76.60
2022-09-18T17:41:42.631Z,76.90
2022-09-18T17:44:10.081Z,77.00
2022-09-18T17:46:37.394Z,77.60
2022-09-18T17:49:05.953Z,76.70
2022-09-18T17:51:37.681Z,76.80
2022-09-18T17:54:05.596Z,76.80
2022-09-18T17:56:35.188Z,77.20
2022-09-18T17:59:06.198Z,76.70
2022-09-18T18:01:38.349Z,76.90
2022-09-18T18:04:06.994Z,76.60
2022-09-18T18:06:35.174Z,76.50
2022-09-18T18:09:02.483Z,75.90
2022-09-18T18:11:29.790Z,75.80
2022-09-18T18:14:00.311Z,76.10
2022-09-18T18:16:31.127Z,76.20
2022-09-18T18:19:04.289Z,76.10
2022-09-18T18:21:33.052Z,76.30
2022-09-18T18:24:08.998Z,76.40
2022-09-18T18:26:42.865Z,75.60
2022-09-18T18:29:12.807Z,76.30
2022-09-18T18:31:45.624Z,76.80
2022-09-18T18:34:13.590Z,76.70
2022-09-18T18:36:45.195Z,76.60
2022-09-18T18:39:14.634Z,76.20
2022-09-18T18:41:47.018Z,76.70
2022-09-18T18:44:14.820Z,76.00
2022-09-18T18:46:42.675Z,76.40
2022-09-18T18:49:13.195Z,76.30
2022-09-18T18:51:51.846Z,77.00
2022-09-18T18:54:21.407Z,76.50
2022-09-18T18:56:51.826Z,76.80
2022-09-18T18:59:22.194Z,77.10
2022-09-18T19:01:56.517Z,77.20
2022-09-18T19:04:24.711Z,76.90
2022-09-18T19:06:52.911Z,76.30
2022-09-18T19:09:24.603Z,75.20
2022-09-18T19:11:52.839Z,75.60
2022-09-18T19:14:22.767Z,76.00
2022-09-18T19:16:53.244Z,75.40
2022-09-18T19:19:24.824Z,76.00
2022-09-18T19:21:52.909Z,77.00
2022-09-18T19:24:21.041Z,76.20
2022-09-18T19:26:51.278Z,76.40
2022-09-18T19:29:24.408Z,77.00
2022-09-18T19:31:54.003Z,77.00
2022-09-18T19:34:24.192Z,77.30
2022-09-18T19:36:53.912Z,77.40
2022-09-18T19:39:23.921Z,77.50
2022-09-18T19:42:06.648Z,77.50
2022-09-18T19:44:49.950Z,78.10
2022-09-18T19:47:20.568Z,78.70
2022-09-18T19:49:49.787Z,79.20
2022-09-18T19:52:21.581Z,79.80
2022-09-18T19:54:53.226Z,80.80
2022-09-18T19:57:21.032Z,81.20
2022-09-18T19:59:52.755Z,80.40
2022-09-18T20:02:20.322Z,81.10
2022-09-18T20:04:47.606Z,81.20
2022-09-18T20:07:15.159Z,81.40
2022-09-18T20:09:44.830Z,81.10
2022-09-18T20:12:12.775Z,81.70
2022-09-18T20:14:40.253Z,81.40
2022-09-18T20:17:10.104Z,81.90
2022-09-18T20:19:40.227Z,82.20
2022-09-18T20:22:10.030Z,82.40
2022-09-18T20:24:37.315Z,82.70
2022-09-18T20:27:06.953Z,82.90
2022-09-18T20:29:34.345Z,82.90
2022-09-18T20:32:02.824Z,82.80
2022-09-18T20:34:30.115Z,82.60
2022-09-18T20:36:57.871Z,82.50
2022-09-18T20:39:30.076Z,82.30
2022-09-18T20:42:02.174Z,81.70
2022-09-18T20:44:30.250Z,81.70
2022-09-18T20:47:00.054Z,81.80
2022-09-18T20:49:27.379Z,81.70
2022-09-18T20:51:57.475Z,81.20
2022-09-18T20:54:27.075Z,81.10
2022-09-18T20:56:57.737Z,80.80
2022-09-18T20:59:25.005Z,80.50
2022-09-18T21:01:54.715Z,80.40
2022-09-18T21:04:27.222Z,81.20
2022-09-18T21:06:56.200Z,80.50
2022-09-18T21:09:26.787Z,80.40
2022-09-18T21:11:56.601Z,80.60
2022-09-18T21:14:24.664Z,80.60
2022-09-18T21:16:52.010Z,80.50
2022-09-18T21:19:20.011Z,80.50
2022-09-18T21:21:48.287Z,80.00
2022-09-18T21:24:16.328Z,79.70
2022-09-18T21:26:46.634Z,79.90
2022-09-18T21:29:15.036Z,80.50
2022-09-18T21:31:45.716Z,81.20
2022-09-18T21:34:24.391Z,80.80
2022-09-18T21:36:57.631Z,81.10
2022-09-18T21:39:28.279Z,81.00
2022-09-18T21:41:57.232Z,81.20
2022-09-18T21:44:29.578Z,81.10
2022-09-18T21:47:00.319Z,80.90
2022-09-18T21:49:29.302Z,80.70
2022-09-18T21:52:00.266Z,80.70
2022-09-18T21:54:27.851Z,80.20
2022-09-18T21:56:57.657Z,80.30
2022-09-18T21:59:27.502Z,80.10
2022-09-18T22:01:58.106Z,80.00
2022-09-18T22:04:32.248Z,79.60
2022-09-18T22:07:01.661Z,79.50
2022-09-18T22:09:31.836Z,79.50
2022-09-18T22:12:02.204Z,79.50
2022-09-18T22:14:32.280Z,79.20
2022-09-18T22:17:01.650Z,79.60
2022-09-18T22:19:33.143Z,79.30
2022-09-18T22:22:00.894Z,79.20
2022-09-18T22:24:28.843Z,79.90
2022-09-18T22:27:02.592Z,79.70
2022-09-18T22:29:34.711Z,79.80
2022-09-18T22:32:02.656Z,79.80
2022-09-18T22:34:32.476Z,80.00
2022-09-18T22:37:00.635Z,80.10
2022-09-18T22:39:30.821Z,80.10
2022-09-18T22:41:58.403Z,80.30
2022-09-18T22:44:25.851Z,80.20
2022-09-18T22:46:53.855Z,80.50
2022-09-18T22:49:25.647Z,80.90
2022-09-18T22:51:55.305Z,81.10
2022-09-18T22:54:24.749Z,80.90
2022-09-18T22:56:53.223Z,81.20
2022-09-18T22:59:22.731Z,81.20
2022-09-18T23:01:59.759Z,81.40
2022-09-18T23:04:31.090Z,81.50
2022-09-18T23:07:01.659Z,81.70
2022-09-18T23:09:29.670Z,81.60
2022-09-18T23:11:57.735Z,81.60
2022-09-18T23:14:29.400Z,81.50
2022-09-18T23:16:57.133Z,81.60
2022-09-18T23:19:26.966Z,81.30
2022-09-18T23:21:54.971Z,81.50
2022-09-18T23:24:23.699Z,81.60
2022-09-18T23:26:52.756Z,81.80
2022-09-18T23:29:23.929Z,81.80
2022-09-18T23:31:57.549Z,82.00
2022-09-18T23:34:29.900Z,81.90
2022-09-18T23:36:58.526Z,82.20
2022-09-18T23:39:31.338Z,82.40
2022-09-18T23:42:02.053Z,82.60
2022-09-18T23:44:31.271Z,83.20
2022-09-18T23:47:00.035Z,83.40
2022-09-18T23:49:28.599Z,84.50
2022-09-18T23:51:59.472Z,85.50
2022-09-18T23:54:28.949Z,87.10
2022-09-18T23:56:56.355Z,88.20
2022-09-18T23:59:25.663Z,88.80
